Tiempo atmosférico en la estación meteorológica de Abia De Obispalia, Cuenca (1020 m.)



Fecha
DESCASC
Temp. máxima en grados centígrados (hora)
DESCASC
Temp. mínima en grados centígrados (hora)
DESCASC
Temp. media en grados centígrados
DESCASC
Racha de viento máxima en m/sg (hora)
DESCASC
Velocidad máxima media en intervalos de 10 minutos(hora)
DESCASC
Precipitaciones diarias en mm
DESCASC
Precipitaciones de 00:00 a 06:00 en mm
DESCASC
Precipitaciones de 06:00 a 12:00 en mm
DESCASC
Precipitaciones de 12:00 a 18:00 en mm
DESCASC
Precipitaciones de 18:00 a 24:00 en mm
DESCASC
18-04-2019 10.7 (00:00) 5.4 (23:50) 8 10.83 (17:50) 6.94 (17:50) 25.2 1.2 9.4 11.6 3
17-04-2019 19.8 (15:50) 6.1 (07:50) 12.9 14.72 (19:40) 8.89 (19:50) 0 0 0 0 0
16-04-2019 20.3 (17:00) 1.4 (00:00) 10.8 12.22 (23:50) 8.33 (23:50) 0 0 0 0 0
15-04-2019 22.1 (18:20) 8.1 (00:00) 15.1 11.11 (18:40) 6.11 (13:30) 0 0 0 0 0
14-04-2019 22 (18:10) 2.2 (00:00) 12.1 7.5 (13:30) 3.89 (14:20) 0 0 0 0 0
13-04-2019 20.1 (17:40) -1.4 (-00:0) 9.4 8.61 (15:20) 4.17 (15:20) 0 0 0 0 0
12-04-2019 16.3 (18:30) 1.1 (00:00) 8.7 9.72 (13:20) 5.28 (12:40) 0 0 0 0 0
11-04-2019 14.2 (17:50) -1.1 (-00:0) 6.5 10.83 (17:30) 5.83 (13:30) 0 0 0 0 0
10-04-2019 10.9 (19:00) 1.2 (00:00) 6 13.06 (14:30) 7.22 (14:30) 0.4 0 0 0.4 0
09-04-2019 9.4 (14:30) 3.3 (00:00) 6.3 13.61 (18:40) 8.33 (18:40) 4.8 0 0 3.6 1.2
08-04-2019 13.6 (16:50) 5 (00:00) 9.3 9.72 (16:20) 5.28 (15:10) 3 1 1.8 0.2 0
07-04-2019 10.4 (17:20) 1.6 (00:00) 6 10.56 (09:40) 6.39 (09:40) 0.2 0 0.2 0 0
06-04-2019 7.7 (18:40) 0.8 (00:00) 4.2 14.17 (14:00) 6.39 (21:20) 2.2 0.6 0 1.6 0
05-04-2019 6.1 (00:50) 1.1 (00:00) 3.6 12.78 (20:10) 5.83 (20:20) 4.6 0 0 2.8 1.8
04-04-2019 12.7 (18:00) -1.6 (-00:0) 5.5 8.06 (23:10) 5 (23:10) 0 0 0 0 0
03-04-2019 14.6 (15:30) 2.6 (00:00) 8.6 10.83 (17:50) 6.11 (17:40) 0 0 0 0 0
02-04-2019 15.4 (15:40) 3.9 (00:00) 9.6 9.17 (18:30) 4.17 (14:30) 6.8 0 0.2 4.6 2
01-04-2019 12.4 (18:30) 6.1 (00:00) 9.2 6.11 (14:30) 4.17 (19:00) 3.2 0.8 1.4 1 0
31-03-2019 8.5 (14:40) 4.4 (00:00) 6.5 9.72 (10:50) 5.56 (10:50) 4.6 0 2 2.6 0
30-03-2019 17.8 (16:00) 2 (00:00) 9.9 9.72 (00:40) 6.67 (00:50) 0 0 0 0 0
29-03-2019 15.4 (15:30) 1.1 (00:00) 8.2 12.5 (13:00) 7.5 (13:50) 0 0 0 0 0
28-03-2019 18.3 (16:40) -3 (-00:0) 7.6 6.67 (13:30) 4.44 (21:10) 0 0 0 0 0
27-03-2019 19 (16:50) 1.3 (00:00) 10.1 10 (12:40) 5 (05:30) 0 0 0 0 0
26-03-2019 19.7 (17:00) 0.7 (00:00) 10.2 10.28 (15:10) 5.56 (20:10) 0 0 0 0 0
25-03-2019 20.9 (17:10) 1.2 (00:00) 11 7.78 (14:00) 4.72 (16:30) 0 0 0 0 0
24-03-2019 19.7 (16:50) 1.6 (00:00) 10.7 11.39 (12:00) 6.39 (12:00) 0 0 0 0 0
23-03-2019 18.3 (15:10) 0.2 (00:00) 9.2 11.11 (14:10) 6.11 (17:50) 0 0 0 0 0
22-03-2019 17.7 (15:40) -3.4 (-00:0) 7.2 10.28 (16:10) 6.11 (16:20) 0 0 0 0 0
21-03-2019 15.5 (17:30) -3.6 (-00:0) 6 7.78 (12:20) 5.28 (21:10) 0 0 0 0 0

Gráficas

Temp. máximas Temp. mínimas Temp. medias Precipitaciones Rachas de viento máximas Velocidades máximas media en intervalos de 10 minutos

Datos horarios

Fecha y hora oficial Temperatura (ºC) Velocidad del viento (km/h) Dirección del viento Racha (km/h) Dirección de racha Precipitación (mm) Presión (hPa) Tendencia (hPa) Humedad (%)
2019-04-19 23:00:00 6.5 3 Noroeste 8 Noroeste 0 -- -- 98
2019-04-19 22:00:00 6.6 0 Calma 7 Norte 0.2 -- -- 98
2019-04-19 21:00:00 6.7 3 Noroeste 6 Noroeste 0.4 -- -- 97
2019-04-19 20:00:00 6.8 2 Noroeste 7 Norte 2 -- -- 97
2019-04-19 19:00:00 7 3 Noroeste 5 Oeste 1 -- -- 96
2019-04-19 18:00:00 7.1 4 Noroeste 10 Noroeste 1.6 -- -- 96
2019-04-19 17:00:00 7.2 4 Oeste 10 Noroeste 1.6 -- -- 95
2019-04-19 16:00:00 7.1 2 Noroeste 4 Noroeste 1.2 -- -- 92
2019-04-19 15:00:00 6.8 0 Calma 7 Este 2.4 -- -- 92
2019-04-19 14:00:00 6.7 5 Sudeste 15 Este 2.8 -- -- 94
2019-04-19 13:00:00 7.3 7 Este 20 Este 4.2 -- -- 93
2019-04-19 12:00:00 7.9 4 Este 13 Sudeste 1.2 -- -- 94
2019-04-19 11:00:00 7.9 8 Este 16 Este 0 -- -- 94
2019-04-19 10:00:00 7.6 8 Sudeste 21 Sudeste 0 -- -- 95
2019-04-19 09:00:00 7 10 Sudeste 25 Este 0 -- -- 96
2019-04-19 08:00:00 6.5 9 Sudeste 14 Sudeste 0 -- -- 96
2019-04-19 07:00:00 6.4 6 Sudeste 12 Sudeste 0 -- -- 97
2019-04-19 06:00:00 6.4 4 Sudeste 14 Este 0 -- -- 97
2019-04-19 05:00:00 6.5 7 Sudeste 12 Sudeste 0 -- -- 97
2019-04-19 04:00:00 6.4 7 Sudeste 17 Sudeste 0 -- -- 97
2019-04-19 03:00:00 6.2 10 Sudeste 18 Sudeste 0 -- -- 97
2019-04-19 02:00:00 6.3 11 Sudeste 16 Sudeste 0 -- -- 96
2019-04-19 01:00:00 6.2 5 Sudeste 12 Sudeste 0 -- -- 97
2019-04-19 00:00:00 5.4 6 Sudeste 16 Sudeste 0 -- -- 96
2019-04-18 23:00:00 6 10 Sudeste 19 Sudeste 0 -- -- 95
2019-04-18 22:00:00 6.5 7 Sudeste 13 Este 0 -- -- 95
2019-04-18 21:00:00 6.7 5 Sudeste 25 Este 0 -- -- 95
2019-04-18 20:00:00 6.9 12 Sudeste 24 Sudeste 1 -- -- 94
2019-04-18 19:00:00 7.1 13 Sudeste 31 Este 2 -- -- 95
2019-04-18 18:00:00 7.5 20 Sudeste 39 Este 0.8 -- -- 95
2019-04-18 17:00:00 7.8 13 Sudeste 24 Sudeste 0.8 -- -- 94
2019-04-18 16:00:00 7.6 2 Nordeste 6 Nordeste 1.4 -- -- 94
2019-04-18 15:00:00 7.3 2 Noroeste 13 Noroeste 3.6 -- -- 94
2019-04-18 14:00:00 7.6 5 Noroeste 13 Noroeste 4.2 -- -- 96
2019-04-18 13:00:00 8.1 7 Noroeste 12 Noroeste 0.8 -- -- 95
2019-04-18 12:00:00 8.1 5 Sudoeste 15 Sudoeste 0.8 -- -- 95
2019-04-18 11:00:00 8.7 5 Oeste 16 Noroeste 0 -- -- 93
2019-04-18 10:00:00 8.3 6 Sudeste 14 Sudeste 0.4 -- -- 96
2019-04-18 09:00:00 7.1 7 Sur 28 Este 1.4 -- -- 96
2019-04-18 08:00:00 7.2 6 Sudeste 21 Sudeste 3.2 -- -- 95
2019-04-18 07:00:00 7 16 Sudeste 22 Sudeste 3.6 -- -- 92
2019-04-18 06:00:00 7.8 6 Oeste 14 Sudeste 1.2 -- -- 90
2019-04-18 05:00:00 8.4 4 Nordeste 20 Sudeste 0 -- -- 81
2019-04-18 04:00:00 8.5 9 Sudeste 22 Sudeste 0 -- -- 76
2019-04-18 03:00:00 8.7 8 Sudeste 19 Sudeste 0 -- -- 76
2019-04-18 02:00:00 9.2 12 Sudeste 24 Sudeste 0 -- -- 74
2019-04-18 01:00:00 10 15 Sudeste 30 Sudeste 0 -- -- 72
2019-04-18 00:00:00 10.7 21 Sudeste 33 Sudeste 0 -- -- 72
2019-04-17 23:00:00 11.8 16 Sudeste 33 Sudeste 0 -- -- 70
2019-04-17 22:00:00 12.9 11 Sudeste 36 Sudeste 0 -- -- 67
2019-04-17 21:00:00 14.1 23 Sudeste 48 Sudeste 0 -- -- 62
2019-04-17 20:00:00 15.5 32 Sudeste 53 Sudeste 0 -- -- 55
2019-04-17 19:00:00 17.3 31 Sudeste 45 Sudeste 0 -- -- 49
2019-04-17 18:00:00 18.7 30 Sudeste 45 Sudeste 0 -- -- 46
2019-04-17 17:00:00 18.8 28 Sudeste 45 Sudeste 0 -- -- 45
2019-04-17 16:00:00 19.3 29 Sudeste 43 Sudeste 0 -- -- 45
2019-04-17 15:00:00 19 30 Sudeste 44 Sudeste 0 -- -- 44
2019-04-17 14:00:00 18.2 21 Sudeste 40 Sudeste 0 -- -- 47
2019-04-17 13:00:00 15.9 26 Sudeste 44 Sudeste 0 -- -- 54
2019-04-17 12:00:00 14.3 24 Sudeste 42 Sudeste 0 -- -- 58
2019-04-17 11:00:00 12.2 28 Sudeste 43 Sudeste 0 -- -- 67
2019-04-17 10:00:00 10 26 Sudeste 42 Sudeste 0 -- -- 75
2019-04-17 09:00:00 7.4 27 Sudeste 42 Sur 0 -- -- 85
2019-04-17 08:00:00 6.1 22 Sudeste 41 Sudeste 0 -- -- 91
2019-04-17 07:00:00 6.5 21 Sudeste 33 Sudeste 0 -- -- 91
2019-04-17 06:00:00 6.2 20 Sudeste 32 Sudeste 0 -- -- 91
2019-04-17 05:00:00 7.1 12 Sudeste 37 Sudeste 0 -- -- 86
2019-04-17 04:00:00 7.8 25 Sudeste 40 Sudeste 0 -- -- 82
2019-04-17 03:00:00 8.3 29 Sudeste 46 Sudeste 0 -- -- 79
2019-04-17 02:00:00 8.5 27 Sudeste 45 Sudeste 0 -- -- 78
2019-04-17 01:00:00 9 32 Sudeste 45 Sudeste 0 -- -- 76
2019-04-17 00:00:00 9.7 29 Sudeste 44 Sudeste 0 -- -- 74
2019-04-16 23:00:00 11.2 24 Sudeste 39 Sudeste 0 -- -- 71
2019-04-16 22:00:00 12.9 19 Sudeste 33 Sudeste 0 -- -- 66
2019-04-16 21:00:00 11.9 8 Sur 21 Sudeste 0 -- -- 51
2019-04-16 20:00:00 17.1 13 Sur 23 Sur 0 -- -- 34
2019-04-16 19:00:00 19.1 16 Sur 27 Sudoeste 0 -- -- 31
2019-04-16 18:00:00 20.1 13 Sur 25 Sur 0 -- -- 27
2019-04-16 17:00:00 20.3 7 Sudoeste 21 Sur 0 -- -- 32
2019-04-16 16:00:00 19.7 10 Sur 23 Sudoeste 0 -- -- 34
2019-04-16 15:00:00 19.3 4 Sudeste 15 Sudeste 0 -- -- 30
2019-04-16 14:00:00 17.6 7 Sur 17 Sur 0 -- -- 43
2019-04-16 13:00:00 16 3 Oeste 11 Sudeste 0 -- -- 43
2019-04-16 12:00:00 15.1 5 Nordeste 15 Nordeste 0 -- -- 48
2019-04-16 11:00:00 13.4 5 Nordeste 18 Nordeste 0 -- -- 52
2019-04-16 10:00:00 11 4 Nordeste 11 Nordeste 0 -- -- 68
2019-04-16 09:00:00 7.2 0 Calma 3 Sudeste 0 -- -- 89
2019-04-16 08:00:00 1.7 0 Calma 3 Sur 0 -- -- 97
2019-04-16 07:00:00 1.7 0 Calma 2 Sudoeste 0 -- -- 96
2019-04-16 06:00:00 2.4 2 Sur 3 Sudoeste 0 -- -- 95
2019-04-16 05:00:00 3.1 0 Calma 6 Noroeste 0 -- -- 91
2019-04-16 04:00:00 5.1 3 Noroeste 8 Oeste 0 -- -- 91
2019-04-16 03:00:00 7.2 3 Noroeste 13 Noroeste 0 -- -- 84
2019-04-16 02:00:00 9.3 7 Oeste 15 Oeste 0 -- -- 78
2019-04-16 01:00:00 10.8 6 Noroeste 23 Noroeste 0 -- -- 75
2019-04-16 00:00:00 11.8 12 Noroeste 22 Oeste 0 -- -- 69
2019-04-15 23:00:00 13.3 10 Noroeste 25 Noroeste 0 -- -- 61
2019-04-15 22:00:00 13.8 6 Oeste 15 Sur 0 -- -- 54
2019-04-15 21:00:00 15.4 7 Sudoeste 35 Oeste 0 -- -- 53
2019-04-15 20:00:00 19.3 11 Oeste 32 Oeste 0 -- -- 34
2019-04-15 19:00:00 21.3 13 Sudoeste 40 Sudoeste 0 -- -- 30
2019-04-15 18:00:00 21.7 9 Sudoeste 30 Oeste 0 -- -- 35
2019-04-15 17:00:00 20.3 13 Sudoeste 30 Sur 0 -- -- 43
2019-04-15 16:00:00 20.2 16 Sur 34 Sur 0 -- -- 51
2019-04-15 15:00:00 20.5 18 Sur 38 Sudeste 0 -- -- 49
2019-04-15 14:00:00 18.2 18 Sur 33 Sur 0 -- -- 57
2019-04-15 13:00:00 18 21 Sur 33 Sur 0 -- -- 58
2019-04-15 12:00:00 17.9 14 Sur 23 Sur 0 -- -- 61
2019-04-15 11:00:00 16 13 Sudeste 23 Sudeste 0 -- -- 68
2019-04-15 10:00:00 14 12 Sur 21 Sur 0 -- -- 73
2019-04-15 09:00:00 11.8 9 Sudeste 15 Sudeste 0 -- -- 80
2019-04-15 08:00:00 9 0 Calma 11 Sur 0 -- -- 88
2019-04-15 07:00:00 10.3 7 Sur 17 Sur 0 -- -- 84
2019-04-15 06:00:00 9.3 5 Sudeste 9 Este 0 -- -- 88
2019-04-15 05:00:00 8.6 0 Calma 4 Sur 0 -- -- 91
2019-04-15 04:00:00 8.3 4 Sur 5 Sudeste 0 -- -- 89
2019-04-15 03:00:00 8.9 2 Sudeste 8 Sur 0 -- -- 85
2019-04-15 02:00:00 8.5 2 Sur 6 Sur 0 -- -- 88
2019-04-15 01:00:00 9.3 2 Sur 9 Sur 0 -- -- 82
2019-04-15 00:00:00 12.8 4 Sur 16 Sur 0 -- -- 70
2019-04-14 23:00:00 10 4 Sur 15 Sudoeste 0 -- -- 79
2019-04-14 22:00:00 12.2 0 Calma 6 Sudoeste 0 -- -- 69
2019-04-14 21:00:00 16 3 Oeste 14 Oeste 0 -- -- 55
2019-04-14 20:00:00 20.2 6 Oeste 17 Noroeste 0 -- -- 44
2019-04-14 19:00:00 21.7 10 Oeste 23 Noroeste 0 -- -- 39
2019-04-14 18:00:00 21.9 9 Noroeste 25 Noroeste 0 -- -- 39
2019-04-14 17:00:00 21.5 12 Noroeste 26 Noroeste 0 -- -- 40
2019-04-14 16:00:00 21.4 10 Noroeste 26 Noroeste 0 -- -- 40
2019-04-14 15:00:00 20.6 8 Noroeste 27 Noroeste 0 -- -- 37
2019-04-14 14:00:00 19.5 12 Oeste 27 Noroeste 0 -- -- 40
2019-04-14 13:00:00 18.5 8 Noroeste 19 Noroeste 0 -- -- 39
2019-04-14 12:00:00 17.3 4 Oeste 9 Sudoeste 0 -- -- 40
2019-04-14 11:00:00 14.7 2 Oeste 8 Noroeste 0 -- -- 48
2019-04-14 10:00:00 12.9 3 Oeste 5 Oeste 0 -- -- 52
2019-04-14 09:00:00 7.8 2 Noroeste 4 Oeste 0 -- -- 64
2019-04-14 08:00:00 3.5 2 Sudoeste 4 Oeste 0 -- -- 84
2019-04-14 07:00:00 2.5 0 Calma 2 Sur 0 -- -- 85
2019-04-14 06:00:00 2.3 0 Calma 3 Sudoeste 0 -- -- 81
2019-04-14 05:00:00 2.3 0 Calma 3 Sudoeste 0 -- -- 77
2019-04-14 04:00:00 2.8 0 Calma 3 Sudoeste 0 -- -- 68
2019-04-14 03:00:00 3.9 0 Calma 4 Oeste 0 -- -- 57
2019-04-14 02:00:00 3.1 0 Calma 3 Sudoeste 0 -- -- 61
2019-04-14 01:00:00 3.5 0 Calma 4 Sudoeste 0 -- -- 56
2019-04-14 00:00:00 3.9 0 Calma 3 Sudoeste 0 -- -- 57
2019-04-13 23:00:00 4.4 0 Calma 4 Sudoeste 0 -- -- 55
2019-04-13 22:00:00 7.3 0 Calma 9 Oeste 0 -- -- 48
2019-04-13 21:00:00 14 5 Oeste 18 Oeste 0 -- -- 22
2019-04-13 20:00:00 17.7 10 Noroeste 20 Noroeste 0 -- -- 19
2019-04-13 19:00:00 19.4 11 Noroeste 24 Noroeste 0 -- -- 16
2019-04-13 18:00:00 19.9 10 Noroeste 21 Noroeste 0 -- -- 14
2019-04-13 17:00:00 20 7 Norte 26 Norte 0 -- -- 14
2019-04-13 16:00:00 19 9 Noroeste 31 Noroeste 0 -- -- 16
2019-04-13 15:00:00 17.8 11 Noroeste 26 Noroeste 0 -- -- 12
2019-04-13 14:00:00 17 12 Norte 24 Norte 0 -- -- 18
2019-04-13 13:00:00 15.7 9 Noroeste 20 Norte 0 -- -- 19
2019-04-13 12:00:00 14.3 12 Norte 21 Norte 0 -- -- 20
2019-04-13 11:00:00 13.2 7 Norte 13 Noroeste 0 -- -- 29
2019-04-13 10:00:00 10.6 3 Noroeste 6 Norte 0 -- -- 36
2019-04-13 09:00:00 5.5 2 Noroeste 4 Noroeste 0 -- -- 58
2019-04-13 08:00:00 -0.9 0 Calma 2 Norte 0 -- -- 86
2019-04-13 07:00:00 -1.3 0 Calma 2 Noroeste 0 -- -- 87
2019-04-13 06:00:00 -0.7 0 Calma 3 Noroeste 0 -- -- 85
2019-04-13 05:00:00 1.6 0 Calma 7 Norte 0 -- -- 73
2019-04-13 04:00:00 3 0 Calma 7 Nordeste 0 -- -- 67
2019-04-13 03:00:00 4.4 2 Este 9 Este 0 -- -- 62
2019-04-13 02:00:00 2.3 2 Sudeste 4 Sur 0 -- -- 74
2019-04-13 01:00:00 1.9 0 Calma 3 Noroeste 0 -- -- 77
2019-04-13 00:00:00 2.1 0 Calma 3 Sur 0 -- -- 76
2019-04-12 23:00:00 3 0 Calma 2 Oeste 0 -- -- 72
2019-04-12 22:00:00 4.8 0 Calma 5 Noroeste 0 -- -- 66
2019-04-12 21:00:00 11 2 Noroeste 23 Norte 0 -- -- 41
2019-04-12 20:00:00 15.3 8 Norte 26 Noroeste 0 -- -- 29
2019-04-12 19:00:00 16 14 Norte 28 Noroeste 0 -- -- 29
2019-04-12 18:00:00 16.2 12 Norte 30 Noroeste 0 -- -- 33
2019-04-12 17:00:00 15.3 14 Noroeste 30 Noroeste 0 -- -- 36
2019-04-12 16:00:00 14.7 15 Noroeste 34 Norte 0 -- -- 37
2019-04-12 15:00:00 13.6 16 Noroeste 34 Norte 0 -- -- 40
2019-04-12 14:00:00 12.6 15 Norte 35 Norte 0 -- -- 43
2019-04-12 13:00:00 11.3 15 Norte 33 Norte 0 -- -- 44
2019-04-12 12:00:00 9.9 14 Norte 26 Noroeste 0 -- -- 55
2019-04-12 11:00:00 8.5 13 Norte 23 Norte 0 -- -- 60
2019-04-12 10:00:00 6.3 9 Norte 21 Norte 0 -- -- 68
2019-04-12 09:00:00 3.9 6 Norte 13 Norte 0 -- -- 77
2019-04-12 08:00:00 1.7 7 Norte 19 Norte 0 -- -- 83
2019-04-12 07:00:00 1.7 5 Norte 14 Norte 0 -- -- 82
2019-04-12 06:00:00 1.5 3 Norte 15 Norte 0 -- -- 83
2019-04-12 05:00:00 1.5 4 Norte 11 Noroeste 0 -- -- 85
2019-04-12 04:00:00 2.3 4 Norte 15 Norte 0 -- -- 82
2019-04-12 03:00:00 2.7 5 Nordeste 13 Norte 0 -- -- 83
2019-04-12 02:00:00 1.3 0 Calma 6 Norte 0 -- -- 83
2019-04-12 01:00:00 4.7 4 Norte 13 Norte 0 -- -- 73
2019-04-12 00:00:00 5.7 3 Norte 17 Norte 0 -- -- 66
2019-04-11 23:00:00 6.6 9 Norte 17 Norte 0 -- -- 62
2019-04-11 22:00:00 7.1 5 Noroeste 20 Norte 0 -- -- 62
2019-04-11 21:00:00 9.1 10 Norte 31 Norte 0 -- -- 54
2019-04-11 20:00:00 12.4 15 Norte 36 Noroeste 0 -- -- 41
2019-04-11 19:00:00 12.8 14 Norte 28 Norte 0 -- -- 37
2019-04-11 18:00:00 13.4 19 Norte 39 Noroeste 0 -- -- 38
2019-04-11 17:00:00 13.7 14 Norte 39 Noroeste 0 -- -- 36
2019-04-11 16:00:00 12.9 17 Norte 39 Noroeste 0 -- -- 39
2019-04-11 15:00:00 12.2 18 Norte 36 Norte 0 -- -- 47
2019-04-11 14:00:00 10.7 19 Norte 37 Noroeste 0 -- -- 54
2019-04-11 13:00:00 10.3 18 Norte 38 Norte 0 -- -- 56
2019-04-11 12:00:00 8.8 17 Norte 34 Nordeste 0 -- -- 63
2019-04-11 11:00:00 7.2 18 Norte 31 Norte 0 -- -- 67
2019-04-11 10:00:00 5.8 11 Norte 24 Nordeste 0 -- -- 74
2019-04-11 09:00:00 3.1 9 Norte 16 Norte 0 -- -- 87
2019-04-11 08:00:00 -1.1 0 Calma 4 Nordeste 0 -- -- 95
2019-04-11 07:00:00 0.3 0 Calma 11 Norte 0 -- -- 93
2019-04-11 06:00:00 1 0 Calma 9 Norte 0 -- -- 91
2019-04-11 05:00:00 1.4 3 Norte 14 Nordeste 0 -- -- 91
2019-04-11 04:00:00 1.3 2 Norte 9 Norte 0 -- -- 92
2019-04-11 03:00:00 0.6 2 Noroeste 6 Norte 0 -- -- 95
2019-04-11 02:00:00 1.7 3 Norte 7 Norte 0 -- -- 94
2019-04-11 01:00:00 1.9 3 Noroeste 10 Noroeste 0 -- -- 95
2019-04-11 00:00:00 1.2 0 Calma 3 Sur 0 -- -- 92
2019-04-10 23:00:00 2.5 0 Calma 8 Norte 0 -- -- 91
2019-04-10 22:00:00 3.1 0 Calma 9 Nordeste 0 -- -- 88
2019-04-10 21:00:00 5.7 2 Noroeste 13 Norte 0 -- -- 76
2019-04-10 20:00:00 6.5 7 Noroeste 34 Norte 0 -- -- 73
2019-04-10 19:00:00 10.9 13 Norte 30 Noroeste 0 -- -- 54
2019-04-10 18:00:00 9.3 9 Noroeste 30 Noroeste 0 -- -- 63
2019-04-10 17:00:00 8.9 8 Noroeste 28 Norte 0 -- -- 65
2019-04-10 16:00:00 9 12 Norte 22 Norte 0 -- -- 70
2019-04-10 15:00:00 4.6 7 Noroeste 47 Noroeste 0.4 -- -- 88
2019-04-10 14:00:00 9.1 12 Noroeste 33 Noroeste 0 -- -- 62
2019-04-10 13:00:00 8.2 15 Noroeste 28 Noroeste 0 -- -- 63
2019-04-10 12:00:00 7.4 15 Noroeste 30 Noroeste 0 -- -- 69
2019-04-10 11:00:00 6.5 15 Noroeste 28 Noroeste 0 -- -- 74
2019-04-10 10:00:00 5.6 17 Noroeste 25 Noroeste 0 -- -- 81
2019-04-10 09:00:00 3.3 6 Noroeste 11 Oeste 0 -- -- 92
2019-04-10 08:00:00 2.7 5 Noroeste 10 Noroeste 0 -- -- 94
2019-04-10 07:00:00 2.8 0 Calma 13 Noroeste 0 -- -- 93
2019-04-10 06:00:00 3.3 5 Noroeste 13 Oeste 0 -- -- 92
2019-04-10 05:00:00 2.9 5 Noroeste 14 Noroeste 0 -- -- 92
2019-04-10 04:00:00 2.9 6 Noroeste 12 Oeste 0 -- -- 90
2019-04-10 03:00:00 3.2 6 Noroeste 12 Noroeste 0 -- -- 88
2019-04-10 02:00:00 3.8 5 Oeste 14 Oeste 0 -- -- 85
2019-04-10 01:00:00 3.4 6 Noroeste 12 Noroeste 0 -- -- 90
2019-04-10 00:00:00 3.3 0 Calma 15 Noroeste 0 -- -- 88
2019-04-09 23:00:00 4.5 6 Noroeste 16 Noroeste 0.2 -- -- 89
2019-04-09 22:00:00 4.3 3 Noroeste 10 Noroeste 1 -- -- 89
2019-04-09 21:00:00 5 3 Noroeste 19 Oeste 0 -- -- 83
2019-04-09 20:00:00 6.4 9 Oeste 24 Oeste 0 -- -- 69
2019-04-09 19:00:00 5.9 15 Oeste 49 Noroeste 0 -- -- 69
2019-04-09 18:00:00 7.1 21 Noroeste 41 Noroeste 0 -- -- 70
2019-04-09 17:00:00 6.2 25 Noroeste 48 Noroeste 2.2 -- -- 84
2019-04-09 16:00:00 8.2 13 Oeste 33 Oeste 0 -- -- 80
2019-04-09 15:00:00 6.8 11 Noroeste 30 Noroeste 1.2 -- -- 85
2019-04-09 14:00:00 9.3 16 Oeste 36 Oeste 0 -- -- 65
2019-04-09 13:00:00 6.5 18 Noroeste 35 Noroeste 0.2 -- -- 84
2019-04-09 12:00:00 6.4 13 Noroeste 30 Noroeste 0 -- -- 79
2019-04-09 11:00:00 6.2 17 Noroeste 36 Noroeste 0 -- -- 77
2019-04-09 10:00:00 5.3 15 Oeste 31 Noroeste 0 -- -- 82
2019-04-09 09:00:00 4.4 13 Noroeste 31 Noroeste 0 -- -- 89
2019-04-09 08:00:00 4.1 16 Noroeste 29 Oeste 0 -- -- 90
2019-04-09 07:00:00 4.2 15 Noroeste 31 Oeste 0 -- -- 92
2019-04-09 06:00:00 4.8 14 Noroeste 31 Oeste 0 -- -- 91
2019-04-09 05:00:00 5 9 Oeste 23 Oeste 0 -- -- 89
2019-04-09 04:00:00 4.5 4 Noroeste 10 Oeste 0 -- -- 90
2019-04-09 03:00:00 5.1 4 Oeste 15 Noroeste 0 -- -- 85
2019-04-09 02:00:00 5.7 6 Noroeste 21 Norte 0 -- -- 82
2019-04-09 01:00:00 6.8 10 Noroeste 20 Noroeste 0 -- -- 71
2019-04-09 00:00:00 7.7 7 Oeste 16 Oeste 0 -- -- 68
2019-04-08 23:00:00 8.3 6 Oeste 13 Oeste 0 -- -- 70
2019-04-08 22:00:00 9.1 5 Oeste 9 Oeste 0 -- -- 67
2019-04-08 21:00:00 9.9 4 Oeste 17 Sudoeste 0 -- -- 67
2019-04-08 20:00:00 11.6 8 Oeste 24 Oeste 0 -- -- 60
2019-04-08 19:00:00 12.6 12 Oeste 31 Noroeste 0 -- -- 56
2019-04-08 18:00:00 13.1 14 Noroeste 32 Noroeste 0 -- -- 58
2019-04-08 17:00:00 13.3 16 Noroeste 35 Noroeste 0 -- -- 57
2019-04-08 16:00:00 12.7 14 Oeste 34 Noroeste 0 -- -- 67
2019-04-08 15:00:00 10.8 13 Oeste 31 Oeste 0.2 -- -- 76
2019-04-08 14:00:00 10.3 15 Oeste 28 Oeste 0 -- -- 84
2019-04-08 13:00:00 10.3 14 Oeste 26 Oeste 0 -- -- 84
2019-04-08 12:00:00 8.6 11 Oeste 21 Noroeste 0.2 -- -- 93
2019-04-08 11:00:00 7.4 11 Oeste 23 Oeste 0.8 -- -- 96
2019-04-08 10:00:00 7.1 10 Oeste 23 Oeste 0.6 -- -- 96
2019-04-08 09:00:00 7 10 Oeste 21 Oeste 0.2 -- -- 97
2019-04-08 08:00:00 6.7 9 Oeste 21 Sudoeste 0 -- -- 98
2019-04-08 07:00:00 6.7 12 Oeste 24 Oeste 0 -- -- 98
2019-04-08 06:00:00 6.5 10 Oeste 24 Oeste 0 -- -- 99
2019-04-08 05:00:00 6.2 8 Oeste 17 Sur 0.2 -- -- 99
2019-04-08 04:00:00 5.6 7 Sur 14 Sur 0.2 -- -- 99
2019-04-08 03:00:00 5.1 5 Sur 9 Sudeste 0.4 -- -- 98
2019-04-08 02:00:00 5 3 Sur 10 Sudeste 0.2 -- -- 96
2019-04-08 01:00:00 5.1 4 Sur 9 Sur 0 -- -- 92
2019-04-08 00:00:00 5.1 0 Calma 2 Sur 0 -- -- 91
2019-04-07 23:00:00 5.3 0 Calma 8 Noroeste 0 -- -- 87
2019-04-07 22:00:00 5.9 4 Noroeste 24 Noroeste 0 -- -- 82
2019-04-07 21:00:00 6.9 7 Noroeste 15 Noroeste 0 -- -- 68
2019-04-07 20:00:00 6.9 9 Noroeste 33 Oeste 0 -- -- 69
2019-04-07 19:00:00 8.8 10 Noroeste 28 Oeste 0 -- -- 54
2019-04-07 18:00:00 9.4 13 Noroeste 27 Noroeste 0 -- -- 45
2019-04-07 17:00:00 10.1 13 Noroeste 27 Oeste 0 -- -- 49
2019-04-07 16:00:00 9.9 13 Noroeste 29 Noroeste 0 -- -- 49
2019-04-07 15:00:00 9.1 15 Noroeste 30 Noroeste 0 -- -- 54
2019-04-07 14:00:00 8.7 15 Noroeste 34 Noroeste 0 -- -- 53
2019-04-07 13:00:00 7.6 14 Noroeste 30 Noroeste 0 -- -- 57
2019-04-07 12:00:00 6.3 21 Noroeste 33 Noroeste 0 -- -- 63
2019-04-07 11:00:00 4.7 16 Noroeste 35 Noroeste 0 -- -- 74
2019-04-07 10:00:00 3.2 21 Noroeste 38 Noroeste 0 -- -- 87
2019-04-07 09:00:00 2.6 19 Noroeste 33 Noroeste 0 -- -- 90
2019-04-07 08:00:00 1.6 10 Noroeste 27 Noroeste 0.2 -- -- 95
2019-04-07 07:00:00 2.1 15 Noroeste 29 Noroeste 0 -- -- 95
2019-04-07 06:00:00 2.2 15 Noroeste 32 Noroeste 0 -- -- 94
2019-04-07 05:00:00 2.2 15 Oeste 31 Oeste 0 -- -- 93
2019-04-07 04:00:00 2.6 13 Oeste 36 Oeste 0 -- -- 91
2019-04-07 03:00:00 2.5 8 Oeste 30 Oeste 0 -- -- 93
2019-04-07 02:00:00 2.4 14 Oeste 31 Noroeste 0 -- -- 93
2019-04-07 01:00:00 2.5 14 Oeste 32 Oeste 0 -- -- 91
2019-04-07 00:00:00 3 10 Oeste 25 Oeste 0 -- -- 90
2019-04-06 23:00:00 3.1 11 Oeste 22 Noroeste 0 -- -- 86
2019-04-06 22:00:00 2.5 4 Oeste 44 Noroeste 0 -- -- 89
2019-04-06 21:00:00 5 17 Oeste 35 Oeste 0 -- -- 76
2019-04-06 20:00:00 6.9 17 Noroeste 39 Oeste 0 -- -- 63
2019-04-06 19:00:00 7 17 Oeste 41 Oeste 0 -- -- 61
2019-04-06 18:00:00 6.7 18 Oeste 39 Oeste 0 -- -- 68
2019-04-06 17:00:00 6.3 17 Oeste 34 Oeste 0.2 -- -- 67
2019-04-06 16:00:00 5.3 12 Oeste 44 Oeste 0 -- -- 87
2019-04-06 15:00:00 4.4 15 Oeste 46 Oeste 0.4 -- -- 89
2019-04-06 14:00:00 2.1 21 Oeste 51 Oeste 1 -- -- 90
2019-04-06 13:00:00 4.5 8 Oeste 26 Noroeste 0 -- -- 86
2019-04-06 12:00:00 3.3 11 Oeste 23 Oeste 0 -- -- 87
2019-04-06 11:00:00 2.5 8 Oeste 23 Oeste 0 -- -- 91
2019-04-06 10:00:00 2 14 Oeste 29 Oeste 0 -- -- 92
2019-04-06 09:00:00 1.2 14 Oeste 33 Oeste 0 -- -- 95
2019-04-06 08:00:00 0.9 15 Noroeste 33 Noroeste 0 -- -- 96
2019-04-06 07:00:00 0.9 10 Oeste 28 Oeste 0 -- -- 97
2019-04-06 06:00:00 1.1 15 Oeste 32 Oeste 0 -- -- 95
2019-04-06 05:00:00 1.2 12 Oeste 25 Oeste 0.6 -- -- 96
2019-04-06 04:00:00 1.4 10 Oeste 20 Oeste 0 -- -- 95
2019-04-06 03:00:00 1.4 2 Noroeste 14 Noroeste 0 -- -- 96
2019-04-06 02:00:00 1.2 6 Oeste 23 Oeste 0 -- -- 94
2019-04-06 01:00:00 1.7 13 Oeste 23 Oeste 0 -- -- 92
2019-04-06 00:00:00 1.5 4 Oeste 20 Oeste 0 -- -- 93
2019-04-05 23:00:00 1.5 6 Oeste 14 Oeste 0 -- -- 93
2019-04-05 22:00:00 1.6 4 Noroeste 17 Oeste 0 -- -- 92
2019-04-05 21:00:00 2 11 Noroeste 46 Oeste 0.4 -- -- 90
2019-04-05 20:00:00 3 7 Oeste 27 Noroeste 1.4 -- -- 91
2019-04-05 19:00:00 2 17 Noroeste 37 Oeste 0 -- -- 88
2019-04-05 18:00:00 4.8 10 Sudoeste 24 Sudoeste 0 -- -- 90
2019-04-05 17:00:00 4.9 11 Sur 28 Sur 0.2 -- -- 89
2019-04-05 16:00:00 3.9 15 Sudoeste 32 Sur 1.8 -- -- 91
2019-04-05 15:00:00 4.8 14 Sudoeste 28 Sudoeste 0 -- -- 88
2019-04-05 14:00:00 4.8 14 Sudoeste 38 Sur 0.4 -- -- 89
2019-04-05 13:00:00 4.6 14 Sur 39 Sur 0.4 -- -- 91
2019-04-05 12:00:00 5.1 14 Sudoeste 31 Sur 0 -- -- 85
2019-04-05 11:00:00 4.8 17 Sur 30 Sur 0 -- -- 88
2019-04-05 10:00:00 4.3 15 Sur 28 Sur 0 -- -- 90
2019-04-05 09:00:00 3.6 8 Sur 23 Sudoeste 0 -- -- 89
2019-04-05 08:00:00 3.4 10 Sur 29 Sudoeste 0 -- -- 85
2019-04-05 07:00:00 4.5 9 Sur 20 Sudoeste 0 -- -- 71
2019-04-05 06:00:00 4.8 7 Sudoeste 17 Sur 0 -- -- 69
2019-04-05 05:00:00 5.1 6 Sur 17 Sudoeste 0 -- -- 75
2019-04-05 04:00:00 5.1 9 Sur 15 Sur 0 -- -- 84
2019-04-05 03:00:00 5.1 13 Sur 21 Sur 0 -- -- 88
2019-04-05 02:00:00 5.2 7 Sur 19 Sudeste 0 -- -- 79
2019-04-05 01:00:00 5.8 15 Sur 22 Sudeste 0 -- -- 53
2019-04-05 00:00:00 6 15 Sudeste 29 Sudeste 0 -- -- 45
2019-04-04 23:00:00 4.9 11 Sur 14 Sudeste 0 -- -- 49
2019-04-04 22:00:00 1.9 8 Sudeste 9 Sudeste 0 -- -- 70
2019-04-04 21:00:00 4.7 5 Sur 12 Sudoeste 0 -- -- 59
2019-04-04 20:00:00 11 8 Sudoeste 19 Oeste 0 -- -- 26
2019-04-04 19:00:00 12.4 8 Oeste 24 Sur 0 -- -- 24
2019-04-04 18:00:00 12.7 6 Noroeste 22 Sudoeste 0 -- -- 24
2019-04-04 17:00:00 11.9 8 Sudoeste 23 Sudoeste 0 -- -- 27
2019-04-04 16:00:00 11.9 9 Sudoeste 21 Sur 0 -- -- 27
2019-04-04 15:00:00 10.8 9 Noroeste 21 Noroeste 0 -- -- 26
2019-04-04 14:00:00 10.1 7 Oeste 20 Noroeste 0 -- -- 28
2019-04-04 13:00:00 8.8 4 Norte 15 Oeste 0 -- -- 34
2019-04-04 12:00:00 7.2 7 Norte 18 Norte 0 -- -- 40
2019-04-04 11:00:00 5.9 9 Norte 18 Norte 0 -- -- 44
2019-04-04 10:00:00 4.2 7 Norte 12 Noroeste 0 -- -- 50
2019-04-04 09:00:00 1.1 3 Norte 8 Norte 0 -- -- 63
2019-04-04 08:00:00 -1.3 2 Norte 9 Norte 0 -- -- 73
2019-04-04 07:00:00 0.3 4 Norte 10 Norte 0 -- -- 68
2019-04-04 06:00:00 0.9 3 Norte 13 Norte 0 -- -- 67
2019-04-04 05:00:00 1.7 5 Norte 19 Norte 0 -- -- 62
2019-04-04 04:00:00 1.5 5 Norte 12 Norte 0 -- -- 69
2019-04-04 03:00:00 2 3 Norte 10 Noroeste 0 -- -- 69
2019-04-04 02:00:00 3.3 5 Norte 19 Norte 0 -- -- 61
2019-04-04 01:00:00 4.3 6 Norte 19 Noroeste 0 -- -- 60
2019-04-04 00:00:00 4.8 7 Norte 27 Norte 0 -- -- 57
2019-04-03 23:00:00 6.5 19 Norte 34 Norte 0 -- -- 49
2019-04-03 22:00:00 7.3 12 Norte 25 Norte 0 -- -- 43
2019-04-03 21:00:00 7.9 9 Norte 26 Norte 0 -- -- 50
2019-04-03 20:00:00 9.6 12 Norte 33 Noroeste 0 -- -- 46
2019-04-03 19:00:00 12.8 18 Norte 39 Noroeste 0 -- -- 45
2019-04-03 18:00:00 13.6 19 Noroeste 39 Noroeste 0 -- -- 49
2019-04-03 17:00:00 14.1 19 Noroeste 35 Noroeste 0 -- -- 42
2019-04-03 16:00:00 13 15 Oeste 37 Noroeste 0 -- -- 49
2019-04-03 15:00:00 13.3 20 Noroeste 33 Noroeste 0 -- -- 52
2019-04-03 14:00:00 13.5 17 Noroeste 32 Noroeste 0 -- -- 50
2019-04-03 13:00:00 12.7 11 Noroeste 25 Noroeste 0 -- -- 62
2019-04-03 12:00:00 11.3 8 Oeste 21 Oeste 0 -- -- 69
2019-04-03 11:00:00 9.9 7 Sudoeste 15 Sudoeste 0 -- -- 77
2019-04-03 10:00:00 8.2 4 Oeste 10 Sudoeste 0 -- -- 89
2019-04-03 09:00:00 3.9 0 Calma 2 Sudoeste 0 -- -- 100
2019-04-03 08:00:00 3.5 0 Calma 3 Sudoeste 0 -- -- 98
2019-04-03 07:00:00 3.9 2 Sur 6 Sudoeste 0 -- -- 98
2019-04-03 06:00:00 2.9 0 Calma 2 Sur 0 -- -- 98
2019-04-03 05:00:00 4 0 Calma 3 Sur 0 -- -- 97
2019-04-03 04:00:00 5.1 0 Calma 8 Sur 0 -- -- 96
2019-04-03 03:00:00 5.3 2 Sur 10 Sur 0 -- -- 98
2019-04-03 02:00:00 3.9 3 Sur 7 Sur 0 -- -- 97
2019-04-03 01:00:00 4.5 0 Calma 2 Sur 0 -- -- 97
2019-04-03 00:00:00 3.9 0 Calma -- -- 0 -- -- 95
2019-04-02 23:00:00 5.5 0 Calma 4 Sudeste 0 -- -- 92
2019-04-02 22:00:00 6.7 3 Sur 8 Sudeste 0 -- -- 93
2019-04-02 21:00:00 7.4 5 Sudeste 16 Sudeste 0.2 -- -- 91
2019-04-02 20:00:00 8.1 5 Este 14 Sudeste 1.4 -- -- 89
2019-04-02 19:00:00 9 5 Norte 33 Noroeste 0.4 -- -- 85
2019-04-02 18:00:00 10 12 Sudeste 26 Norte 0.8 -- -- 79
2019-04-02 17:00:00 12.6 4 Sudoeste 23 Oeste 0.4 -- -- 69
2019-04-02 16:00:00 15.4 12 Oeste 26 Sudoeste 0 -- -- 56
2019-04-02 15:00:00 14 12 Sudoeste 31 Sudoeste 0 -- -- 66
2019-04-02 14:00:00 13 10 Oeste 22 Noroeste 0.6 -- -- 77
2019-04-02 13:00:00 9.4 10 Sur 21 Sudoeste 2.8 -- -- 84
2019-04-02 12:00:00 10.7 5 Noroeste 9 Noroeste 0 -- -- 83
2019-04-02 11:00:00 9.1 3 Noroeste 8 Noroeste 0 -- -- 92
2019-04-02 10:00:00 7.6 0 Calma 3 Sur 0 -- -- 100
2019-04-02 09:00:00 6.7 0 Calma 5 Sudoeste 0.2 -- -- 100
2019-04-02 08:00:00 6.5 0 Calma 5 Sur 0 -- -- 100
2019-04-02 07:00:00 6.5 0 Calma 7 Sur 0 -- -- 99
2019-04-02 06:00:00 6.7 2 Sur 10 Sur 0 -- -- 99
2019-04-02 05:00:00 5.5 2 Sudoeste 5 Sur 0 -- -- 100
2019-04-02 04:00:00 6.3 3 Sur 7 Sudoeste 0 -- -- 97
2019-04-02 03:00:00 7.5 4 Sudoeste 8 Sur 0 -- -- 99
2019-04-02 02:00:00 7.5 4 Sur 18 Sudeste 0 -- -- 99
2019-04-02 01:00:00 7.4 8 Sudeste 14 Sur 0 -- -- 97
2019-04-02 00:00:00 7.2 11 Sur 15 Sudeste 0 -- -- 95
2019-04-01 23:00:00 6.6 9 Sur 13 Sur 0 -- -- 95
2019-04-01 22:00:00 7.1 7 Sur 17 Sur 0 -- -- 92
2019-04-01 21:00:00 7.9 5 Sudeste 18 Sudeste 0 -- -- 93
2019-04-01 20:00:00 10.3 12 Sur 22 Sur 0 -- -- 85
2019-04-01 19:00:00 10.5 15 Sur 22 Sur 0 -- -- 84
2019-04-01 18:00:00 11.7 4 Sur 13 Sur 0 -- -- 78
2019-04-01 17:00:00 10.8 9 Sur 15 Sudeste 0 -- -- 83
2019-04-01 16:00:00 11.7 13 Sur 21 Sudeste 0 -- -- 82
2019-04-01 15:00:00 9.8 13 Sur 22 Sur 0 -- -- 88
2019-04-01 14:00:00 9.3 12 Sur 22 Sur 0 -- -- 92
2019-04-01 13:00:00 8.6 10 Sur 19 Sur 1 -- -- 95
2019-04-01 12:00:00 8.5 9 Sur 16 Sudeste 0.8 -- -- 95
2019-04-01 11:00:00 8.9 12 Sudeste 19 Sudeste 0 -- -- 93
2019-04-01 10:00:00 7.2 9 Sudeste 13 Sudeste 0.6 -- -- 97
2019-04-01 09:00:00 6.8 5 Sudeste 11 Sudeste 0 -- -- 97
2019-04-01 08:00:00 6.4 5 Sudeste 10 Sudeste 0 -- -- 97
2019-04-01 07:00:00 6.3 0 Calma 2 Norte 0 -- -- 97
2019-04-01 06:00:00 6.2 3 Sudeste 6 Este 0.4 -- -- 96
2019-04-01 05:00:00 6.2 2 Sudeste 3 Este 0.2 -- -- 95
2019-04-01 04:00:00 6.2 0 Calma 7 Este 0 -- -- 95
2019-04-01 03:00:00 6.1 0 Calma 11 Sudeste 0.2 -- -- 95
2019-04-01 02:00:00 6.1 4 Sudeste 11 Este 0 -- -- 95
2019-04-01 01:00:00 6.3 0 Calma 7 Este 0 -- -- 94
2019-04-01 00:00:00 6.4 3 Este 9 Este 0 -- -- 91
2019-03-31 23:00:00 6.7 0 Calma 8 Este 0 -- -- 89
2019-03-31 22:00:00 6.7 2 Este 9 Nordeste 0 -- -- 89
2019-03-31 21:00:00 6.8 3 Nordeste 11 Nordeste 0 -- -- 89
2019-03-31 20:00:00 7.3 3 Este 14 Este 0 -- -- 90
2019-03-31 19:00:00 8 4 Este 16 Nordeste 0 -- -- 89
2019-03-31 18:00:00 7.6 8 Este 18 Este 0 -- -- 89
2019-03-31 17:00:00 7.8 5 Este 15 Este 0.2 -- -- 90
2019-03-31 16:00:00 7.6 10 Sudeste 27 Este 0.2 -- -- 89
2019-03-31 15:00:00 8.3 12 Sudeste 27 Este 0.6 -- -- 87
2019-03-31 14:00:00 8.3 12 Este 25 Este 0.6 -- -- 87
2019-03-31 13:00:00 7.3 10 Sudeste 23 Este 1 -- -- 91
2019-03-31 12:00:00 6 8 Sudeste 26 Sudeste 1.2 -- -- 94
2019-03-31 11:00:00 5 17 Sudeste 35 Este 0.6 -- -- 92
2019-03-31 10:00:00 4.6 17 Sudeste 32 Sudeste 0.2 -- -- 88
2019-03-31 09:00:00 4.4 15 Este 30 Este 0 -- -- 88
2019-03-31 08:00:00 4.6 8 Sudeste 20 Sudeste 0 -- -- 87
2019-03-31 07:00:00 5.7 7 Sudeste 26 Sudeste 0 -- -- 76
2019-03-31 06:00:00 6.7 13 Sudeste 21 Sudeste 0 -- -- 59
2019-03-31 05:00:00 7.1 8 Sudeste 31 Sudeste 0 -- -- 56
2019-03-31 03:00:00 6.8 7 Sudeste 15 Este 0 -- -- 67
2019-03-31 01:00:00 6.5 6 Sudeste 21 Este 0 -- -- 69
2019-03-31 00:00:00 6.2 8 Sudeste 34 Sudeste 0 -- -- 74
2019-03-30 23:00:00 6.8 15 Sudeste 26 Sudeste 0 -- -- 69
2019-03-30 22:00:00 7.6 13 Sudeste 25 Sudeste 0 -- -- 70
2019-03-30 21:00:00 9 14 Sudeste 24 Sudeste 0 -- -- 65
2019-03-30 20:00:00 10.5 17 Sudeste 32 Sur 0 -- -- 59
2019-03-30 19:00:00 13.1 19 Sur 33 Sudeste 0 -- -- 49
2019-03-30 18:00:00 15.5 17 Sur 33 Sur 0 -- -- 41
2019-03-30 17:00:00 17.3 13 Sur 23 Sur 0 -- -- 34
2019-03-30 16:00:00 17.8 9 Sudeste 23 Sudeste 0 -- -- 34
2019-03-30 15:00:00 17 12 Sudeste 24 Sur 0 -- -- 34
2019-03-30 14:00:00 16.2 11 Sudeste 26 Sudeste 0 -- -- 36
2019-03-30 13:00:00 14.7 12 Sudeste 23 Este 0 -- -- 39
2019-03-30 12:00:00 12.2 16 Sur 23 Sur 0 -- -- 42
2019-03-30 11:00:00 11.3 14 Sudeste 24 Sudeste 0 -- -- 43
2019-03-30 10:00:00 9.6 12 Sudeste 30 Sudeste 0 -- -- 51
2019-03-30 09:00:00 7.4 15 Sudeste 27 Sudeste 0 -- -- 57
2019-03-30 08:00:00 3.4 4 Este 10 Este 0 -- -- 74
2019-03-30 07:00:00 2.2 4 Sudeste 27 Sudeste 0 -- -- 80
2019-03-30 06:00:00 2.4 13 Sudeste 23 Sudeste 0 -- -- 81
2019-03-30 05:00:00 2.5 13 Sudeste 25 Sudeste 0 -- -- 73
2019-03-30 04:00:00 3 15 Sudeste 24 Sudeste 0 -- -- 67
2019-03-30 03:00:00 3.1 11 Sudeste 29 Sudeste 0 -- -- 62
2019-03-30 02:00:00 3.6 18 Sudeste 35 Sudeste 0 -- -- 59
2019-03-30 01:00:00 4.3 22 Sudeste 35 Sudeste 0 -- -- 57
2019-03-30 00:00:00 4.8 21 Sudeste 34 Sudeste 0 -- -- 53
2019-03-29 23:00:00 5.6 22 Sudeste 33 Sudeste 0 -- -- 51
2019-03-29 22:00:00 6.4 21 Sudeste 32 Sudeste 0 -- -- 54
2019-03-29 21:00:00 7.4 18 Sudeste 29 Sudeste 0 -- -- 52
2019-03-29 20:00:00 9 16 Sudeste 28 Sudeste 0 -- -- 48
2019-03-29 19:00:00 11.6 15 Sudeste 34 Sudeste 0 -- -- 42
2019-03-29 18:00:00 12 19 Sudeste 34 Sudeste 0 -- -- 41
2019-03-29 17:00:00 14 23 Sudeste 36 Sudeste 0 -- -- 35
2019-03-29 16:00:00 14.7 23 Sudeste 40 Sur 0 -- -- 30
2019-03-29 15:00:00 14.9 24 Sudeste 41 Sur 0 -- -- 31
2019-03-29 14:00:00 14.6 24 Sudeste 43 Sudeste 0 -- -- 31
2019-03-29 13:00:00 13.8 25 Sudeste 45 Sudeste 0 -- -- 30
2019-03-29 12:00:00 12.9 22 Sudeste 37 Este 0 -- -- 31
2019-03-29 11:00:00 11.2 19 Sudeste 39 Sudeste 0 -- -- 34
2019-03-29 10:00:00 9.9 19 Sudeste 31 Sur 0 -- -- 37
2019-03-29 09:00:00 8 8 Este 15 Este 0 -- -- 38
2019-03-29 08:00:00 4 9 Sudeste 16 Sudeste 0 -- -- 46
2019-03-29 07:00:00 2.7 13 Sudeste 26 Sudeste 0 -- -- 45
2019-03-29 06:00:00 2.6 9 Sudeste 15 Sudeste 0 -- -- 46
2019-03-29 05:00:00 1.9 0 Calma 9 Sudeste 0 -- -- 55
2019-03-29 04:00:00 2.8 6 Sudeste 13 Sudeste 0 -- -- 46
2019-03-29 03:00:00 1.2 0 Calma 8 Este 0 -- -- 59
2019-03-29 02:00:00 1.7 2 Sudeste 10 Sudeste 0 -- -- 60
2019-03-29 01:00:00 4.4 8 Sudeste 17 Sudeste 0 -- -- 50
2019-03-29 00:00:00 5.4 8 Sudeste 21 Sudeste 0 -- -- 48
2019-03-28 23:00:00 6.5 12 Sudeste 21 Sudeste 0 -- -- 45
2019-03-28 22:00:00 7.8 13 Sudeste 22 Sudeste 0 -- -- 41
2019-03-28 21:00:00 8.8 12 Sudeste 20 Sur 0 -- -- 34
2019-03-28 20:00:00 9.8 13 Sur 18 Sudeste 0 -- -- 32
2019-03-28 19:00:00 13.1 13 Sur 20 Sur 0 -- -- 26
2019-03-28 18:00:00 15.9 11 Sur 19 Sur 0 -- -- 23
2019-03-28 17:00:00 17.7 10 Sudoeste 18 Sudoeste 0 -- -- 19
2019-03-28 16:00:00 17.6 5 Sudoeste 20 Sur 0 -- -- 20
2019-03-28 15:00:00 17.7 8 Sudoeste 23 Sur 0 -- -- 20
2019-03-28 14:00:00 16.8 5 Sudoeste 24 Sur 0 -- -- 21
2019-03-28 13:00:00 15.5 8 Noroeste 22 Oeste 0 -- -- 19
2019-03-28 12:00:00 14.1 6 Sudeste 19 Sur 0 -- -- 20
2019-03-28 11:00:00 12.9 7 Sudeste 21 Sudeste 0 -- -- 23
2019-03-28 10:00:00 11.5 6 Sudeste 14 Sudeste 0 -- -- 23
2019-03-28 09:00:00 8.1 0 Calma 8 Sudeste 0 -- -- 35
2019-03-28 08:00:00 1.7 3 Sudeste 4 Sur 0 -- -- 46
2019-03-28 07:00:00 -2.3 0 Calma 4 Sur 0 -- -- 62
2019-03-28 06:00:00 -2.7 0 Calma 3 Noroeste 0 -- -- 68
2019-03-28 05:00:00 -1.3 0 Calma 5 Sudeste 0 -- -- 62
2019-03-28 04:00:00 -1.5 3 Sudeste 5 Sudeste 0 -- -- 64
2019-03-28 03:00:00 -0.2 0 Calma 12 Sudeste 0 -- -- 60
2019-03-28 02:00:00 1.9 4 Sudeste 10 Sudeste 0 -- -- 49
2019-03-28 01:00:00 2.5 2 Sudeste 12 Sudeste 0 -- -- 52
2019-03-28 00:00:00 5.4 9 Sudeste 19 Sudeste 0 -- -- 44
2019-03-27 23:00:00 6.5 13 Sudeste 24 Sudeste 0 -- -- 41
2019-03-27 22:00:00 7.3 12 Sudeste 21 Sudeste 0 -- -- 35
2019-03-27 21:00:00 8.6 13 Sur 25 Sur 0 -- -- 34
2019-03-27 20:00:00 9.7 13 Sur 17 Sudoeste 0 -- -- 33
2019-03-27 19:00:00 14.4 5 Sudoeste 19 Sudoeste 0 -- -- 32
2019-03-27 18:00:00 17.7 6 Sudoeste 21 Nordeste 0 -- -- 25
2019-03-27 17:00:00 18.8 8 Este 21 Este 0 -- -- 21
2019-03-27 16:00:00 18.6 7 Nordeste 22 Nordeste 0 -- -- 22
2019-03-27 15:00:00 17.3 6 Este 23 Sudeste 0 -- -- 24
2019-03-27 14:00:00 16.1 12 Sudeste 29 Este 0 -- -- 27
2019-03-27 13:00:00 15.7 6 Este 36 Sudeste 0 -- -- 29
2019-03-27 12:00:00 12.9 3 Nordeste 19 Sudeste 0 -- -- 33
2019-03-27 11:00:00 11.5 6 Nordeste 15 Nordeste 0 -- -- 37
2019-03-27 10:00:00 9.6 7 Este 15 Este 0 -- -- 46
2019-03-27 09:00:00 7.2 7 Sudeste 18 Sudeste 0 -- -- 55
2019-03-27 08:00:00 3.4 0 Calma 18 Este 0 -- -- 75
2019-03-27 07:00:00 2.5 11 Sudeste 26 Sudeste 0 -- -- 78
2019-03-27 06:00:00 2.7 14 Sudeste 30 Sudeste 0 -- -- 84
2019-03-27 05:00:00 1.9 4 Sudeste 14 Sudeste 0 -- -- 92
2019-03-27 04:00:00 1.3 2 Sudeste 9 Sur 0 -- -- 93
2019-03-27 03:00:00 2.1 6 Sur 9 Sur 0 -- -- 91
2019-03-27 02:00:00 2.3 4 Sur 16 Sudeste 0 -- -- 87
2019-03-27 01:00:00 3.6 7 Sudeste 18 Sudeste 0 -- -- 82
2019-03-27 00:00:00 3.1 3 Sur 14 Sudeste 0 -- -- 70
2019-03-26 23:00:00 6 8 Sudeste 21 Sudeste 0 -- -- 60
2019-03-26 22:00:00 7.5 7 Sudeste 30 Sudeste 0 -- -- 54
2019-03-26 21:00:00 9.4 18 Sudeste 30 Sudeste 0 -- -- 51
2019-03-26 20:00:00 11.8 19 Sudeste 26 Sudeste 0 -- -- 42
2019-03-26 19:00:00 15.4 12 Sudeste 18 Sudeste 0 -- -- 32
2019-03-26 18:00:00 18.5 10 Sudeste 28 Sudeste 0 -- -- 24
2019-03-26 17:00:00 19.7 9 Sudeste 29 Sudeste 0 -- -- 23
2019-03-26 16:00:00 19.2 19 Sudeste 37 Sudeste 0 -- -- 24
2019-03-26 15:00:00 19.1 17 Sudeste 28 Este 0 -- -- 25
2019-03-26 14:00:00 18.3 16 Sudeste 36 Sudeste 0 -- -- 25
2019-03-26 13:00:00 18 11 Sudeste 28 Este 0 -- -- 25
2019-03-26 12:00:00 16.4 10 Sudeste 25 Sudeste 0 -- -- 31
2019-03-26 11:00:00 14.9 14 Este 29 Este 0 -- -- 34
2019-03-26 10:00:00 11.8 15 Sudeste 27 Sudeste 0 -- -- 40
2019-03-26 09:00:00 9.5 10 Sudeste 19 Sudeste 0 -- -- 45
2019-03-26 08:00:00 5.3 2 Norte 6 Este 0 -- -- 55
2019-03-26 07:00:00 3.5 0 Calma 8 Sudeste 0 -- -- 60
2019-03-26 06:00:00 4.9 0 Calma 11 Sudeste 0 -- -- 57
2019-03-26 05:00:00 5.6 4 Nordeste 21 Este 0 -- -- 52
2019-03-26 04:00:00 4 4 Nordeste 9 Nordeste 0 -- -- 54
2019-03-26 03:00:00 0.7 0 Calma 5 Este 0 -- -- 67
2019-03-26 02:00:00 1.9 0 Calma 4 Norte 0 -- -- 61
2019-03-26 01:00:00 4.4 0 Calma 5 Norte 0 -- -- 49
2019-03-26 00:00:00 4.7 3 Sur 5 Sur 0 -- -- 52
2019-03-25 23:00:00 6.7 0 Calma 9 Este 0 -- -- 46
2019-03-25 22:00:00 11.3 4 Nordeste 17 Nordeste 0 -- -- 33
2019-03-25 21:00:00 12.2 4 Norte 22 Nordeste 0 -- -- 30
2019-03-25 20:00:00 14.1 11 Norte 23 Nordeste 0 -- -- 27
2019-03-25 19:00:00 17.3 13 Norte 22 Norte 0 -- -- 23
2019-03-25 18:00:00 20 10 Norte 26 Norte 0 -- -- 24
2019-03-25 17:00:00 20.7 13 Norte 28 Norte 0 -- -- 23
2019-03-25 16:00:00 20.8 6 Noroeste 22 Norte 0 -- -- 22
2019-03-25 15:00:00 20.4 9 Noroeste 24 Noroeste 0 -- -- 23
2019-03-25 14:00:00 19.2 11 Sur 28 Sudeste 0 -- -- 23
2019-03-25 13:00:00 18.7 10 Sudeste 21 Sudeste 0 -- -- 23
2019-03-25 12:00:00 17.5 8 Sur 20 Este 0 -- -- 25
2019-03-25 11:00:00 16.7 8 Sudeste 17 Sudeste 0 -- -- 28
2019-03-25 10:00:00 15.3 6 Norte 12 Norte 0 -- -- 29
2019-03-25 09:00:00 11.7 0 Calma 5 Nordeste 0 -- -- 38
2019-03-25 08:00:00 4.4 0 Calma 3 Sur 0 -- -- 62
2019-03-25 07:00:00 1.6 0 Calma 2 Este 0 -- -- 63
2019-03-25 06:00:00 1.7 0 Calma 4 Sudeste 0 -- -- 63
2019-03-25 05:00:00 2.9 3 Sur 4 Sudeste 0 -- -- 57
2019-03-25 04:00:00 3.4 3 Sudeste 5 Oeste 0 -- -- 56
2019-03-25 03:00:00 4.7 2 Sudoeste 9 Sur 0 -- -- 52
2019-03-25 02:00:00 3.7 5 Sur 7 Sur 0 -- -- 56
2019-03-25 01:00:00 2.8 0 Calma 3 Sudoeste 0 -- -- 61
2019-03-25 00:00:00 5.5 0 Calma 13 Sudeste 0 -- -- 51
2019-03-24 23:00:00 9.5 12 Sudeste 21 Sudeste 0 -- -- 38
2019-03-24 22:00:00 9.3 10 Sudeste 23 Sudeste 0 -- -- 40
2019-03-24 21:00:00 10.5 14 Sudeste 20 Sudeste 0 -- -- 38
2019-03-24 20:00:00 11.2 12 Sur 22 Sudeste 0 -- -- 37
2019-03-24 19:00:00 15 16 Sudeste 26 Sudeste 0 -- -- 30
2019-03-24 18:00:00 17.7 15 Sudeste 31 Este 0 -- -- 25
2019-03-24 17:00:00 19.3 14 Sudeste 33 Sudeste 0 -- -- 22
2019-03-24 16:00:00 18.8 12 Este 31 Este 0 -- -- 22
2019-03-24 15:00:00 19 13 Este 32 Sudeste 0 -- -- 22
2019-03-24 14:00:00 18.8 12 Sudeste 35 Sudeste 0 -- -- 23
2019-03-24 13:00:00 18.1 16 Sudeste 39 Sudeste 0 -- -- 26
2019-03-24 12:00:00 16.3 23 Sudeste 41 Sudeste 0 -- -- 28
2019-03-24 11:00:00 15 11 Sudeste 22 Este 0 -- -- 37
2019-03-24 10:00:00 13.6 8 Este 18 Este 0 -- -- 38
2019-03-24 09:00:00 10.9 6 Este 13 Sudeste 0 -- -- 45
2019-03-24 08:00:00 4.4 3 Sudeste 8 Sudeste 0 -- -- 66
2019-03-24 07:00:00 1.8 0 Calma 9 Este 0 -- -- 72
2019-03-24 06:00:00 5.5 5 Sudeste 16 Este 0 -- -- 60
2019-03-24 05:00:00 6.7 8 Sudeste 21 Sudeste 0 -- -- 58
2019-03-24 04:00:00 7.8 9 Sudeste 19 Sudeste 0 -- -- 57
2019-03-24 03:00:00 7.1 8 Sudeste 13 Sudeste 0 -- -- 63
2019-03-24 02:00:00 7.3 9 Sudeste 22 Sudeste 0 -- -- 64
2019-03-24 01:00:00 6.7 8 Sudeste 14 Sudeste 0 -- -- 65
2019-03-24 00:00:00 7 11 Sudeste 15 Sudeste 0 -- -- 64
2019-03-23 23:00:00 7.8 7 Sudeste 15 Sudeste 0 -- -- 60
2019-03-23 22:00:00 8.7 9 Sudeste 19 Sudeste 0 -- -- 56
2019-03-23 21:00:00 10.1 9 Sudeste 19 Sudeste 0 -- -- 51
2019-03-23 20:00:00 11.1 11 Sudeste 26 Sudeste 0 -- -- 46
2019-03-23 19:00:00 13.1 21 Sudeste 33 Sudeste 0 -- -- 41
2019-03-23 18:00:00 14.3 21 Sudeste 35 Sudeste 0 -- -- 39
2019-03-23 17:00:00 15.3 19 Sudeste 34 Sudeste 0 -- -- 38
2019-03-23 16:00:00 15.6 16 Sudeste 33 Sudeste 0 -- -- 37
2019-03-23 15:00:00 17.9 16 Sudeste 40 Sudeste 0 -- -- 34
2019-03-23 14:00:00 16.6 18 Sudeste 37 Sudeste 0 -- -- 33
2019-03-23 13:00:00 15.9 15 Sudeste 34 Sudeste 0 -- -- 33
2019-03-23 12:00:00 16.2 15 Sudeste 28 Sudeste 0 -- -- 36
2019-03-23 11:00:00 14.4 11 Este 22 Sudeste 0 -- -- 41
2019-03-23 10:00:00 12.7 4 Norte 18 Este 0 -- -- 45
2019-03-23 09:00:00 7.7 0 Calma 4 Nordeste 0 -- -- 61
2019-03-23 08:00:00 2.5 0 Calma 4 Norte 0 -- -- 83
2019-03-23 07:00:00 1.1 2 Sur 4 Nordeste 0 -- -- 85
2019-03-23 06:00:00 0.9 0 Calma 3 Sur 0 -- -- 84
2019-03-23 05:00:00 1.3 0 Calma 2 Sudoeste 0 -- -- 86
2019-03-23 04:00:00 0.6 0 Calma 3 Noroeste 0 -- -- 89
2019-03-23 03:00:00 0.3 0 Calma 2 Norte 0 -- -- 87
2019-03-23 02:00:00 1.1 0 Calma 2 Sur 0 -- -- 84
2019-03-23 01:00:00 1.9 0 Calma 3 Noroeste 0 -- -- 78
2019-03-23 00:00:00 3.9 0 Calma 12 Sur 0 -- -- 72
2019-03-22 23:00:00 7.1 12 Sur 20 Sur 0 -- -- 62
2019-03-22 22:00:00 8.1 15 Sur 23 Sudeste 0 -- -- 58
2019-03-22 21:00:00 8.9 13 Sudeste 23 Sudeste 0 -- -- 54
2019-03-22 20:00:00 10.2 14 Sudeste 24 Sur 0 -- -- 49
2019-03-22 19:00:00 12.4 16 Sudeste 30 Sudeste 0 -- -- 42
2019-03-22 18:00:00 15.4 18 Sudeste 31 Sudeste 0 -- -- 36
2019-03-22 17:00:00 16.7 16 Sudeste 37 Sudeste 0 -- -- 31
2019-03-22 16:00:00 16.5 18 Sudeste 36 Sudeste 0 -- -- 31
2019-03-22 15:00:00 17 12 Sur 32 Sudeste 0 -- -- 32
2019-03-22 14:00:00 16.4 7 Nordeste 25 Sudeste 0 -- -- 30
2019-03-22 13:00:00 15.5 9 Este 23 Sudeste 0 -- -- 33
2019-03-22 12:00:00 13.4 12 Este 24 Sudeste 0 -- -- 35
2019-03-22 11:00:00 11.5 11 Sudeste 22 Sudeste 0 -- -- 36
2019-03-22 10:00:00 10.7 7 Sudeste 12 Sudeste 0 -- -- 35
2019-03-22 09:00:00 6.9 0 Calma 8 Nordeste 0 -- -- 50
2019-03-22 08:00:00 0.5 0 Calma 5 Sudeste 0 -- -- 79
2019-03-22 07:00:00 -3 0 Calma 3 Sur 0 -- -- 90
2019-03-22 06:00:00 -3.2 0 Calma 3 Sudeste 0 -- -- 90
2019-03-22 05:00:00 -2.9 0 Calma -- -- 0 -- -- 87
2019-03-22 04:00:00 -2.9 0 Calma -- -- 0 -- -- 87
2019-03-22 03:00:00 -2.3 0 Calma -- -- 0 -- -- 84
2019-03-22 02:00:00 -1.8 0 Calma 0 Calma 0 -- -- 81
2019-03-22 01:00:00 -0.1 0 Calma 6 Sudeste 0 -- -- 72
2019-03-22 00:00:00 1.9 0 Calma 10 Sudeste 0 -- -- 64
2019-03-21 23:00:00 3.8 6 Sudeste 23 Sudeste 0 -- -- 57
2019-03-21 22:00:00 5 19 Sur 28 Sudeste 0 -- -- 54
2019-03-21 21:00:00 6.1 19 Sur 24 Sudeste 0 -- -- 47
2019-03-21 20:00:00 7.4 13 Sur 23 Sur 0 -- -- 42
2019-03-21 19:00:00 10 12 Sur 22 Sur 0 -- -- 36
2019-03-21 18:00:00 13.9 10 Sur 21 Sudoeste 0 -- -- 28
2019-03-21 17:00:00 15 6 Noroeste 15 Sudoeste 0 -- -- 25
2019-03-21 16:00:00 14.7 6 Oeste 21 Sudoeste 0 -- -- 25
2019-03-21 15:00:00 14.1 6 Este 19 Norte 0 -- -- 26
2019-03-21 14:00:00 14.2 5 Nordeste 21 Este 0 -- -- 27
2019-03-21 13:00:00 12.7 9 Este 28 Sudeste 0 -- -- 30
2019-03-21 12:00:00 11.5 8 Sudeste 23 Este 0 -- -- 32
2019-03-21 11:00:00 9.5 3 Nordeste 11 Este 0 -- -- 48
2019-03-21 10:00:00 6.3 0 Calma 4 Oeste 0 -- -- 65
2019-03-21 09:00:00 3.4 0 Calma 7 Sudeste 0 -- -- 76
2019-03-21 08:00:00 -0.5 6 Sudeste 12 Sudeste 0 -- -- 96
2019-03-21 07:00:00 -3.3 0 Calma 4 Sur 0 -- -- 96
2019-03-21 06:00:00 -2.5 0 Calma 5 Sur 0 -- -- 94
2019-03-21 05:00:00 -1.9 0 Calma 5 Nordeste 0 -- -- 94
2019-03-21 04:00:00 -0.9 2 Norte 6 Norte 0 -- -- 95
2019-03-21 03:00:00 -0.8 0 Calma 4 Sudeste 0 -- -- 92
2019-03-21 02:00:00 0.1 0 Calma 11 Sudeste 0 -- -- 87
2019-03-21 01:00:00 1.9 8 Sudeste 14 Sudeste 0 -- -- 88
2019-03-21 00:00:00 3.2 9 Sudeste 17 Sudeste 0 -- -- 81